Latest Weather Observations for Maatsuyker Island

IDT60801

Issued at 9:35 pm EST Friday 1 August 2014 (issued every 30 minutes, with the page automatically refreshed every 10 minutes)

About weather observations | Map of weather stations | Latest weather observations for TAS | Other Formats
Station Details ID: 094041 Name: MAATSUYKER ISLAND LIGHTHOUSE Lat: -43.66 Lon: 146.27 Height: 146.5 m
Data from the previous 72 hours. | See also: Recent months at Maatsuyker Island
Date/Time
EST
Temp
°C
App
Temp
°C
Dew
Point
Rel
Hum
%
Delta-T
°C
Wind Press
QNH
hPa
Press
MSL
hPa
Rain
since 9 am
mm
Dir
 
Spd
km/h
Gust
km/h
Spd
kts
Gust
kts
01/09:30pm 6.7 -4.2 -1.5 56 3.1 SSW 46 61 25 33 1013.8 - 2.2
01/09:00pm 6.4 -5.0 0.3 65 2.4 S 50 59 27 32 1013.4 1013.4 2.2
01/08:30pm 6.5 -6.0 -1.8 55 3.1 SSW 54 63 29 34 1012.8 - 2.2
01/08:00pm 6.9 -4.9 -2.6 51 3.5 SSW 50 61 27 33 1011.8 - 2.2
01/07:30pm 6.7 -6.1 -0.9 58 2.9 S 56 67 30 36 1010.9 - 2.2
01/07:00pm 6.4 -7.7 -1.3 58 2.9 S 63 74 34 40 1010.4 - 2.2
01/06:51pm 6.1 -9.1 -0.4 63 2.5 S 69 76 37 41 1009.9 - 2.2
01/06:49pm 5.8 -4.9 -0.1 66 2.3 S 46 67 25 36 1010.1 - 2.2
01/06:46pm 5.2 -5.1 0.3 70 1.9 S 44 56 24 30 1010.0 - 2.0
01/06:38pm 4.3 -6.7 0.4 76 1.5 SSE 48 89 26 48 1009.6 - 2.0
01/06:35pm 3.9 -11.3 0.5 78 1.3 SSE 70 89 38 48 1009.1 - 2.0
01/06:30pm 4.5 -11.6 1.8 83 1.1 SSE 76 89 41 48 1008.5 - 2.0
01/06:29pm 4.9 -11.2 1.9 81 1.2 SSE 76 89 41 48 1008.6 - 2.0
01/06:27pm 5.0 -5.8 1.8 80 1.3 SSE 48 74 26 40 1009.3 - 2.0
01/06:05pm 4.3 -6.9 1.8 84 1.0 SSE 50 91 27 49 1008.9 - 1.8
01/06:00pm 5.2 -12.0 2.5 83 1.1 S 82 91 44 49 1008.2 1008.1 1.8
01/05:58pm 5.2 -12.0 2.5 83 1.1 S 82 91 44 49 1007.9 - 1.8
01/05:43pm 5.9 -6.6 0.9 70 2.0 S 56 78 30 42 1007.1 - 1.8
01/05:30pm 5.9 -8.0 0.6 69 2.1 S 63 72 34 39 1007.5 - 1.8
01/05:00pm 5.4 -8.3 1.7 77 1.5 S 63 78 34 42 1005.6 - 1.8
01/04:48pm 5.2 -9.2 2.0 80 1.3 SSE 67 74 36 40 1005.2 - 1.8
01/04:33pm 6.5 -5.5 1.3 69 2.1 SSW 54 72 29 39 1005.6 - 1.8
01/04:30pm 6.4 -6.2 0.3 65 2.4 SSW 56 72 30 39 1005.6 - 1.8
01/04:07pm 6.4 -5.5 0.0 63 2.5 S 52 70 28 38 1004.7 - 1.6
01/04:00pm 6.2 -6.9 0.4 66 2.3 S 59 70 32 38 1004.5 - 1.6
01/03:49pm 6.1 -7.5 -0.3 63 2.5 S 61 80 33 43 1004.1 - 1.6
01/03:33pm 6.2 -7.0 2.1 75 1.7 S 61 69 33 37 1003.6 - 1.6
01/03:32pm 5.9 -2.8 1.7 74 1.7 SSE 37 65 20 35 1003.6 - 1.6
01/03:30pm 5.3 -1.9 1.0 74 1.7 SSE 28 50 15 27 1003.7 - 1.6
01/03:23pm 4.9 -6.0 1.4 78 1.4 SSE 48 89 26 48 1003.6 - 1.6
01/03:19pm 5.0 -7.6 1.5 78 1.4 SSE 57 89 31 48 1003.2 - 1.4
01/03:16pm 6.0 -11.3 1.6 73 1.8 S 82 89 44 48 1002.0 - 1.4
01/03:14pm 6.4 -6.7 0.6 66 2.3 SSE 59 87 32 47 1002.5 - 1.4
01/03:08pm 5.9 -7.0 -2.2 56 3.0 SSE 56 91 30 49 1002.9 - 1.4
01/03:00pm 6.0 -10.0 0.1 66 2.3 S 74 91 40 49 1002.0 1002.2 1.4
01/02:45pm 7.0 -9.9 1.7 69 2.2 S 80 89 43 48 1001.6 - 1.4
01/02:42pm 7.4 -5.7 0.4 61 2.8 S 59 78 32 42 1001.9 - 1.4
01/02:30pm 7.6 -6.3 -2.2 50 3.7 S 61 74 33 40 1001.5 - 1.4
01/02:00pm 7.7 -5.8 -2.4 49 3.8 S 59 69 32 37 1000.7 - 1.4
01/01:30pm 7.6 -7.2 -4.0 43 4.2 S 65 74 35 40 1000.0 - 1.4
01/01:00pm 7.5 -7.4 -1.3 53 3.4 S 67 78 36 42 998.7 - 1.4
01/12:45pm 7.4 -7.8 -0.8 56 3.2 S 69 87 37 47 998.1 - 1.4
01/12:30pm 7.5 -8.4 -2.0 51 3.6 S 72 85 39 46 997.8 - 1.4
01/12:15pm 7.5 -9.0 -0.7 56 3.2 S 76 95 41 51 996.7 - 1.4
01/12:00pm 7.2 -10.3 -2.1 51 3.5 S 80 91 43 49 996.3 996.4 1.4
01/11:30am 7.1 -10.0 0.4 62 2.7 S 80 96 43 52 995.5 - 1.4
01/11:00am 6.3 -10.6 1.7 72 1.9 S 80 100 43 54 994.3 - 1.4
01/10:54am 5.5 -11.5 1.3 74 1.7 S 80 100 43 54 994.2 - 1.4
01/10:52am 5.2 -13.1 1.2 75 1.6 S 87 100 47 54 993.9 - 1.4
01/10:44am 5.7 -7.1 2.3 79 1.4 SSW 59 80 32 43 994.8 - 1.2
01/10:40am 5.4 -6.9 2.0 79 1.4 SSW 56 104 30 56 994.8 - 1.2
01/10:36am 5.4 -9.4 2.0 79 1.4 SSE 69 111 37 60 993.9 - 1.2
01/10:33am 5.0 -13.9 2.1 81 1.2 SSE 91 111 49 60 993.4 - 1.2
01/10:30am 5.5 -14.7 2.6 81 1.2 SSE 98 111 53 60 992.0 - 1.2
01/10:07am 6.2 -9.4 2.9 79 1.4 S 74 95 40 51 992.6 - 1.2
01/10:00am 5.7 -9.8 3.1 83 1.1 S 74 85 40 46 992.8 - 1.2
01/09:55am 5.7 -9.0 3.4 85 1.0 S 70 85 38 46 992.6 - 1.2
01/09:53am 4.9 -4.7 3.2 89 0.7 S 43 65 23 35 992.8 - 1.2
01/09:51am 5.1 -2.9 3.7 91 0.6 S 35 61 19 33 993.2 - 1.2
01/09:46am 5.0 -6.3 3.3 89 0.7 SE 52 65 28 35 992.5 - 0.8
01/09:45am 5.0 -2.1 3.3 89 0.7 E 30 65 16 35 992.5 - 0.8
01/09:44am 4.9 -0.1 3.5 91 0.6 NE 19 65 10 35 992.5 - 0.6
01/09:39am 5.4 -2.9 4.0 91 0.6 ESE 37 61 20 33 992.2 - 0.4
01/09:37am 6.0 -0.7 3.9 86 0.9 ENE 28 56 15 30 992.0 - 0.2
01/09:30am 6.1 -1.1 3.0 80 1.3 ESE 30 44 16 24 992.2 - 0.0
01/09:20am 6.1 1.1 3.5 83 1.1 NE 19 63 10 34 991.7 - 0.0
01/09:19am 6.1 -3.5 3.5 83 1.1 SE 43 63 23 34 991.6 - 0.0
01/09:12am 5.7 -4.8 3.4 85 1.0 SSE 48 67 26 36 991.4 - 0.0
01/09:02am 5.7 -9.1 2.9 82 1.2 SSE 70 89 38 48 990.6 - 0.0
01/09:00am 5.5 -6.0 2.4 80 1.3 S 52 89 28 48 990.5 990.5 14.0
01/08:30am 5.5 -9.7 2.9 83 1.1 SSE 72 87 39 47 989.1 - 14.0
01/08:00am 5.8 -8.3 3.5 85 1.0 S 67 78 36 42 988.6 - 14.0
01/07:30am 5.8 -7.1 4.0 88 0.8 S 61 76 33 41 987.0 - 14.0
01/07:22am 5.8 -5.4 4.0 88 0.8 S 52 72 28 39 987.2 - 14.0
01/07:13am 5.7 -5.5 3.8 87 0.8 S 52 59 28 32 987.1 - 13.8
01/07:08am 6.3 -2.9 3.5 82 1.2 SW 41 57 22 31 987.3 - 13.6
01/07:07am 6.3 -1.4 3.3 81 1.3 W 33 59 18 32 987.3 - 13.6
01/07:03am 6.5 -1.4 4.2 85 1.0 WNW 35 74 19 40 987.0 - 13.6
01/07:00am 6.8 -6.1 4.1 83 1.2 NW 61 74 33 40 986.2 - 13.4
01/06:45am 6.9 -5.6 4.2 83 1.2 WNW 59 78 32 42 985.3 - 13.4
01/06:37am 7.0 -5.7 2.8 74 1.8 WNW 59 87 32 47 985.8 - 13.2
01/06:30am 7.7 -9.4 2.6 70 2.1 NW 82 95 44 51 984.8 - 13.2
01/06:00am 7.5 -8.1 2.9 72 2.0 NW 74 102 40 55 983.2 983.7 13.2
01/05:34am 7.5 -11.2 3.4 75 1.8 NW 91 109 49 59 982.4 - 13.2
01/05:30am 7.6 -11.5 3.2 74 1.9 NW 93 109 50 59 982.8 - 13.2
01/05:01am 7.0 -14.0 2.5 73 1.9 NW 102 120 55 65 981.1 - 13.2
01/05:00am 7.2 -14.1 2.8 73 1.9 NW 104 120 56 65 981.5 - 13.2
01/04:32am 7.7 -15.6 0.9 62 2.7 NW 113 132 61 71 980.0 - 13.2
01/04:30am 7.3 -16.6 -0.5 57 3.0 NW 115 132 62 71 979.8 - 13.2
01/04:26am 7.2 -16.5 -1.6 53 3.3 NW 113 132 61 71 978.8 - 13.2
01/04:04am 6.6 -15.5 1.2 68 2.2 NW 107 126 58 68 980.8 - 13.2
01/04:00am 6.7 -15.7 1.9 71 2.0 NW 109 126 59 68 980.9 - 13.2
01/03:52am 7.7 -12.9 0.0 58 3.0 NW 98 119 53 64 980.4 - 13.2
01/03:30am 7.6 -14.0 -1.4 53 3.4 NW 102 117 55 63 980.2 - 13.2
01/03:01am 7.7 -13.9 -1.9 50 3.6 NW 102 120 55 65 980.2 - 13.2
01/03:00am 7.6 -13.8 -0.1 58 3.1 NW 102 113 55 61 980.2 981.0 13.2
01/02:36am 7.4 -13.7 -1.0 55 3.2 NW 100 128 54 69 980.2 - 13.2
01/02:30am 7.5 -13.6 -0.6 56 3.1 NW 100 115 54 62 980.6 - 13.2
01/02:01am 7.0 -15.5 -1.2 56 3.1 NW 107 126 58 68 980.7 - 13.2
01/02:00am 7.0 -15.9 -1.6 54 3.2 NW 109 126 59 68 980.6 - 13.2
01/01:30am 7.5 -14.8 0.1 59 2.9 NW 107 126 58 68 979.4 - 13.2
01/01:00am 6.8 -16.3 0.1 62 2.6 NW 111 135 60 73 978.6 - 13.2
01/12:55am 6.2 -18.0 0.2 65 2.3 NW 117 135 63 73 979.2 - 13.2
01/12:49am 6.2 -18.5 0.5 67 2.2 NW 120 130 65 70 978.2 - 13.2
01/12:47am 7.0 -13.7 1.7 69 2.2 NW 100 122 54 66 979.4 - 13.2
01/12:37am 6.5 -13.7 0.0 63 2.5 NW 96 124 52 67 979.2 - 13.2
01/12:30am 5.5 -18.8 -0.4 66 2.3 NW 117 145 63 78 979.0 - 13.2
01/12:22am 3.9 -22.6 1.1 82 1.1 NW 130 148 70 80 979.0 - 13.0
01/12:20am 4.7 -22.1 2.0 83 1.1 NW 132 148 71 80 978.0 - 12.8
01/12:19am 6.1 -16.4 1.5 72 1.9 NW 109 148 59 80 978.4 - 12.8
01/12:18am 7.7 -14.4 1.2 63 2.6 NW 107 126 58 68 979.0 - 12.8
01/12:08am 6.6 -13.9 0.7 66 2.3 NW 98 126 53 68 979.7 - 12.8
01/12:02am 6.2 -17.9 0.5 67 2.2 NW 117 135 63 73 978.5 - 12.8
01/12:00am 6.4 -18.2 1.3 70 2.1 NW 120 135 65 73 978.8 978.3 12.8
 
Date/Time
EST
Temp
°C
App
Temp
°C
Dew
Point
Rel
Hum
%
Delta-T
°C
Wind Press
QNH
hPa
Press
MSL
hPa
Rain
since 9 am
mm
Dir
 
Spd
km/h
Gust
km/h
Spd
kts
Gust
kts
31/11:37pm 7.9 -14.2 0.3 58 3.0 NW 106 124 57 67 977.9 - 12.8
31/11:30pm 7.7 -13.8 -0.9 54 3.3 NW 102 119 55 64 977.5 - 12.8
31/11:18pm 7.4 -13.4 -1.3 54 3.3 NW 98 132 53 71 978.0 - 12.8
31/11:12pm 7.0 -14.7 0.3 62 2.6 NW 104 135 56 73 978.0 - 12.8
31/11:02pm 5.9 -19.5 0.7 69 2.1 NW 124 143 67 77 977.6 - 12.8
31/11:00pm 6.8 -19.4 0.9 66 2.4 NW 128 143 69 77 976.9 - 12.8
31/10:59pm 7.1 -14.2 0.2 61 2.7 NW 102 143 55 77 976.8 - 12.8
31/10:30pm 7.2 -12.5 3.3 76 1.7 NW 96 120 52 65 978.1 - 12.8
31/10:26pm 7.5 -12.5 3.4 75 1.8 NW 98 120 53 65 978.5 - 12.8
31/10:06pm 6.9 -13.3 2.4 73 1.9 NW 98 117 53 63 975.8 - 12.8
31/10:00pm 7.1 -13.1 2.4 72 2.0 NW 98 111 53 60 977.3 - 12.8
31/09:54pm 6.6 -13.4 1.5 70 2.1 NW 96 133 52 72 976.9 - 12.8
31/09:48pm 5.6 -17.7 3.3 85 1.0 NW 115 135 62 73 977.4 - 12.8
31/09:45pm 5.7 -19.3 3.4 85 1.0 NW 124 135 67 73 975.8 - 12.8
31/09:40pm 7.3 -13.4 1.6 67 2.3 NW 100 119 54 64 976.8 - 12.8
31/09:30pm 7.3 -14.5 2.1 69 2.2 NW 106 120 57 65 976.4 - 12.8
31/09:00pm 7.7 -16.8 0.9 62 2.8 NW 119 139 64 75 975.2 975.1 12.6
31/08:56pm 7.4 -17.5 -0.7 56 3.1 NW 120 139 65 75 974.9 - 12.6
31/08:51pm 8.3 -16.3 1.4 62 2.8 NW 120 137 65 74 973.6 - 12.6
31/08:30pm 8.2 -10.5 3.4 72 2.1 NW 91 117 49 63 974.3 - 12.6
31/08:24pm 8.2 -9.7 3.7 73 2.0 NW 87 106 47 57 974.8 - 12.6
31/08:17pm 8.0 -9.2 3.2 72 2.1 NNW 83 117 45 63 974.5 - 12.6
31/08:00pm 7.9 -14.0 2.8 70 2.2 NW 107 130 58 70 973.4 - 12.6
31/07:41pm 7.9 -13.3 3.4 73 1.9 NW 104 130 56 70 972.2 - 12.6
31/07:33pm 8.1 -12.9 4.3 77 1.7 NW 104 124 56 67 974.3 - 12.6
31/07:30pm 7.8 -14.6 4.2 78 1.6 NW 111 124 60 67 973.1 - 12.6
31/07:26pm 7.5 -15.8 3.1 73 1.9 NW 115 124 62 67 973.2 - 12.6
31/07:00pm 6.9 -12.3 4.9 87 0.9 NNW 95 126 51 68 974.0 - 12.6
31/06:31pm 7.5 -11.7 2.9 72 1.9 NW 93 113 50 61 973.8 - 12.0
31/06:30pm 7.7 -11.4 3.4 74 1.8 NW 93 106 50 57 973.8 - 12.0
31/06:26pm 7.8 -10.3 4.5 79 1.5 NW 89 102 48 55 974.7 - 12.0
31/06:21pm 7.7 -6.5 5.1 83 1.2 NNW 69 91 37 49 975.1 - 12.0
31/06:19pm 7.0 -2.4 4.5 84 1.1 NNW 43 78 23 42 975.7 - 12.0
31/06:14pm 6.4 -2.6 4.4 87 0.9 NNW 41 74 22 40 976.0 - 11.8
31/06:07pm 6.4 -7.7 3.9 84 1.1 NNW 67 85 36 46 975.7 - 11.8
31/06:00pm 6.5 -8.6 3.5 81 1.3 NNW 72 98 39 53 975.5 975.6 11.8
31/05:55pm 6.1 -8.5 3.3 82 1.2 NNW 69 115 37 62 975.3 - 11.8
31/05:38pm 7.9 -11.6 3.1 72 2.0 NW 95 113 51 61 974.0 - 11.6
31/05:37pm 8.0 -6.2 3.2 72 2.1 NNW 67 109 36 59 974.6 - 11.6
31/05:30pm 7.4 -4.7 4.0 79 1.5 NNW 57 78 31 42 975.4 - 11.4
31/05:00pm 5.8 -5.7 4.2 89 0.7 NNW 54 80 29 43 976.2 - 11.4
31/04:30pm 5.9 -5.1 4.8 93 0.5 NNW 52 72 28 39 976.8 - 10.6
31/04:00pm 6.5 -1.5 4.0 84 1.1 N 35 54 19 29 976.4 - 9.8
31/03:30pm 5.8 -1.8 3.0 82 1.2 N 32 50 17 27 977.7 - 9.8
31/03:29pm 5.7 -1.5 3.1 83 1.1 N 30 50 16 27 977.7 - 9.8
31/03:24pm 5.7 -1.1 3.1 83 1.1 N 28 41 15 22 977.4 - 9.8
31/03:00pm 4.7 1.3 3.8 94 0.4 N 11 20 6 11 978.4 978.6 9.8
31/02:30pm 4.5 -0.5 3.6 94 0.4 N 19 30 10 16 979.6 - 9.8
31/02:00pm 4.4 -1.2 3.5 94 0.4 N 22 32 12 17 979.8 - 9.6
31/01:30pm 4.3 -1.3 3.4 94 0.4 N 22 32 12 17 980.2 - 9.4
31/01:00pm 4.4 -0.9 3.2 92 0.5 N 20 30 11 16 981.4 - 8.6
31/12:30pm 4.3 -0.9 3.4 94 0.4 N 20 33 11 18 981.7 - 7.8
31/12:00pm 4.8 -1.2 3.6 92 0.5 N 24 32 13 17 982.8 982.9 6.8
31/11:30am 4.9 -0.3 3.5 91 0.6 N 20 28 11 15 982.8 - 6.4
31/11:00am 5.6 -1.5 3.3 85 1.0 NNW 30 39 16 21 984.3 - 5.6
31/10:30am 5.9 -1.1 4.3 89 0.7 NW 30 39 16 21 985.1 - 4.0
31/10:00am 6.2 -4.0 3.4 82 1.2 NW 46 59 25 32 985.5 - 2.6
31/09:34am 6.8 -4.1 3.6 80 1.4 NW 50 72 27 39 984.9 - 1.2
31/09:30am 7.2 -3.5 4.7 84 1.1 NW 50 63 27 34 985.5 - 1.0
31/09:21am 7.2 -2.1 5.7 90 0.7 NW 44 63 24 34 985.4 - 0.6
31/09:00am 7.3 -1.4 5.8 90 0.7 WNW 41 54 22 29 985.3 985.5 23.6
31/08:38am 7.5 -2.2 4.1 79 1.5 NW 44 67 24 36 984.3 - 23.0
31/08:30am 7.1 -0.5 6.0 93 0.5 NNW 35 44 19 24 985.1 - 22.8
31/08:21am 7.2 -1.1 5.9 91 0.6 NNW 39 82 21 44 984.9 - 22.6
31/08:17am 7.8 -4.8 5.4 85 1.1 NW 61 82 33 44 984.2 - 22.4
31/08:00am 7.9 -5.0 5.7 86 1.0 NW 63 70 34 38 985.1 - 22.4
31/07:30am 6.9 -4.9 5.8 93 0.5 NW 57 76 31 41 986.0 - 21.8
31/07:25am 6.6 -6.8 5.5 93 0.5 NW 65 76 35 41 985.7 - 20.8
31/07:15am 7.3 -1.0 6.2 93 0.5 NNW 39 57 21 31 986.2 - 18.8
31/07:00am 7.4 -2.3 5.9 90 0.7 NNW 46 61 25 33 986.0 - 18.2
31/06:30am 7.3 -1.1 5.8 90 0.7 NNW 39 48 21 26 985.2 - 18.2
31/06:00am 7.2 -0.1 5.4 88 0.8 NNW 33 57 18 31 986.1 986.4 17.6
31/05:30am 7.4 -1.4 5.7 89 0.8 NNW 41 52 22 28 986.5 - 17.0
31/05:00am 7.2 -2.1 5.0 86 1.0 NNW 43 57 23 31 986.4 - 17.0
31/04:35am 7.3 -3.8 4.4 82 1.3 NNW 52 70 28 38 985.9 - 16.8
31/04:30am 7.6 -4.2 4.9 83 1.2 NNW 56 67 30 36 986.0 - 16.8
31/04:06am 7.3 -3.4 4.6 83 1.2 NNW 50 82 27 44 985.8 - 16.8
31/04:02am 6.9 -8.1 3.9 81 1.3 NW 72 91 39 49 985.8 - 16.8
31/04:00am 6.9 -8.8 4.2 83 1.2 NW 76 91 41 49 985.8 - 16.8
31/03:38am 7.7 -9.1 4.6 81 1.4 NW 82 102 44 55 985.8 - 16.0
31/03:30am 8.0 -8.4 4.7 80 1.5 NW 80 91 43 49 986.3 - 15.8
31/03:00am 7.0 -6.9 5.0 87 0.9 NW 67 80 36 43 987.1 987.4 15.6
31/02:30am 7.8 -5.2 5.6 86 1.0 NW 63 74 34 40 988.3 - 14.2
31/02:00am 7.2 -5.9 5.0 86 1.0 WNW 63 72 34 39 988.3 - 14.0
31/01:30am 7.1 -4.5 5.6 90 0.7 WNW 56 67 30 36 987.4 - 13.2
31/01:00am 7.7 -4.7 6.4 91 0.6 WNW 61 74 33 40 987.8 - 12.2
31/12:48am 8.3 -3.9 7.3 93 0.5 WNW 61 80 33 43 987.2 - 12.0
31/12:36am 8.5 -4.0 7.9 96 0.3 WNW 63 104 34 56 986.7 - 11.6
31/12:34am 9.0 -9.1 8.0 93 0.5 NW 93 111 50 60 985.9 - 11.6
31/12:30am 9.3 -9.9 7.7 90 0.8 NW 98 111 53 60 985.0 - 11.4
31/12:05am 9.7 -9.0 7.9 88 0.9 NW 96 115 52 62 984.4 - 11.2
31/12:00am 9.8 -9.3 8.0 88 0.9 NW 98 113 53 61 983.8 984.0 11.2
 
Date/Time
EST
Temp
°C
App
Temp
°C
Dew
Point
Rel
Hum
%
Delta-T
°C
Wind Press
QNH
hPa
Press
MSL
hPa
Rain
since 9 am
mm
Dir
 
Spd
km/h
Gust
km/h
Spd
kts
Gust
kts
30/11:30pm 10.0 -9.0 8.2 88 0.9 NW 98 111 53 60 983.7 - 10.8
30/11:04pm 9.2 -8.3 9.0 99 0.1 NW 91 109 49 59 983.9 - 10.8
30/11:00pm 8.9 -9.4 8.9 100 0.0 NW 95 109 51 59 983.6 - 10.6
30/10:42pm 8.5 -12.2 8.3 99 0.1 NW 107 126 58 68 983.2 - 9.4
30/10:39pm 9.4 -11.6 7.3 87 1.0 NW 107 124 58 67 983.6 - 9.0
30/10:30pm 11.4 -9.7 8.4 82 1.5 NNW 109 133 59 72 981.6 - 9.0
30/10:27pm 11.1 -9.5 8.7 85 1.2 NNW 107 133 58 72 981.5 - 9.0
30/10:00pm 11.7 -6.6 9.0 83 1.4 NNW 95 117 51 63 983.5 - 8.6
30/09:30pm 11.9 -8.5 9.0 82 1.5 NNW 106 130 57 70 982.6 - 7.8
30/09:22pm 12.1 -6.3 8.6 79 1.8 NNW 95 130 51 70 981.9 - 7.6
30/09:00pm 12.2 -4.7 8.2 76 2.0 NNW 87 109 47 59 984.0 983.9 7.6
30/08:30pm 12.2 -5.8 8.4 77 1.9 NNW 93 117 50 63 983.8 - 7.6
30/08:00pm 12.0 -6.2 9.3 83 1.4 NNW 95 119 51 64 983.6 - 7.6
30/07:30pm 11.0 -5.9 10.0 93 0.5 NNW 89 109 48 59 984.8 - 7.4
30/07:00pm 11.7 -6.6 9.0 83 1.4 NNW 95 115 51 62 985.2 - 7.2
30/06:50pm 12.0 -7.7 8.7 80 1.7 NNW 102 120 55 65 984.7 - 7.2
30/06:49pm 11.9 -8.1 8.8 81 1.6 NNW 104 120 56 65 984.5 - 7.2
30/06:30pm 11.7 -4.2 9.4 86 1.2 NNW 83 106 45 57 985.5 - 7.0
30/06:00pm 11.9 -4.2 8.5 80 1.7 NNW 83 120 45 65 985.6 986.1 7.0
30/05:30pm 10.8 -4.9 9.4 91 0.7 NNW 82 109 44 59 986.9 - 7.0
30/05:25pm 10.3 -4.9 9.9 97 0.2 NNW 80 98 43 53 987.7 - 6.8
30/05:24pm 10.2 -5.6 9.8 97 0.2 NNW 83 98 45 53 987.2 - 6.8
30/05:01pm 10.2 -1.8 8.4 89 0.9 NNW 61 82 33 44 988.2 - 6.0
30/05:00pm 10.1 -1.5 8.3 88 0.9 NNW 59 72 32 39 988.4 - 6.0
30/04:43pm 9.6 0.0 7.8 88 0.9 NNW 48 67 26 36 989.3 - 6.0
30/04:30pm 8.8 -0.1 7.6 92 0.6 NNW 44 56 24 30 989.7 - 6.0
30/04:00pm 8.4 -0.6 6.5 88 0.9 NNW 43 50 23 27 990.3 - 5.2
30/03:30pm 8.4 -2.0 6.0 85 1.1 NW 50 59 27 32 990.7 - 4.8
30/03:00pm 8.5 -0.7 6.4 87 1.0 NW 44 65 24 35 990.7 991.1 4.6
30/02:30pm 9.1 -4.1 6.3 83 1.3 NW 65 78 35 42 990.7 - 3.6
30/02:00pm 9.4 -5.4 5.0 74 2.0 NW 72 85 39 46 990.5 - 3.0
30/01:30pm 9.9 -4.4 4.9 71 2.3 NW 69 78 37 42 990.9 - 3.0
30/01:00pm 10.0 -5.8 3.7 65 2.8 NW 76 85 41 46 991.2 - 3.0
30/12:30pm 9.8 -6.9 5.7 75 1.9 NW 83 95 45 51 991.1 - 3.0
30/12:00pm 9.8 -7.5 6.7 81 1.5 NW 87 100 47 54 990.9 990.8 3.0
30/11:32am 9.4 -8.1 7.3 87 1.0 NW 89 107 48 58 990.3 - 2.8
30/11:30am 9.5 -7.4 8.5 93 0.5 NW 87 100 47 54 990.7 - 2.8
30/11:00am 9.4 -9.2 8.4 93 0.5 NW 96 109 52 59 990.9 - 2.4
30/10:30am 8.6 -9.1 8.4 99 0.1 NW 91 102 49 55 990.2 - 2.0
30/10:28am 8.6 -9.0 8.6 100 0.0 NW 91 106 49 57 990.3 - 2.0
30/10:11am 9.0 -12.3 7.3 89 0.8 NW 109 132 59 71 990.0 - 0.4
30/10:00am 11.9 -8.5 7.2 73 2.3 NNW 104 128 56 69 987.7 - 0.0
30/09:30am 11.9 -7.5 6.8 71 2.5 NNW 98 124 53 67 987.8 - 0.0
30/09:00am 11.6 -6.1 6.6 71 2.4 NNW 89 122 48 66 987.9 987.9 8.0
30/08:30am 11.1 -7.8 6.5 73 2.2 NNW 95 117 51 63 988.3 - 8.0
30/08:18am 10.6 -9.9 6.9 78 1.8 NNW 104 132 56 71 988.4 - 8.0
30/08:07am 10.8 -11.5 6.2 73 2.2 NNW 113 146 61 79 986.4 - 8.0
30/08:00am 11.4 -10.1 5.0 65 2.9 NNW 107 128 58 69 987.4 - 8.0
30/07:58am 11.5 -10.4 4.6 62 3.1 NW 109 128 59 69 987.3 - 8.0
30/07:55am 11.4 -10.9 4.7 63 3.1 NW 111 128 60 69 987.6 - 8.0
30/07:30am 11.1 -7.4 4.6 64 3.0 NNW 91 124 49 67 988.1 - 8.0
30/07:00am 10.8 -6.2 4.5 65 2.9 NNW 83 106 45 57 990.0 - 8.0
30/06:30am 10.2 -6.0 3.5 63 2.9 NNW 78 96 42 52 990.3 - 8.0
30/06:00am 9.8 -5.2 2.1 58 3.3 NNW 70 109 38 59 990.7 990.4 8.0
30/05:39am 9.7 -8.4 2.6 61 3.0 NW 87 106 47 57 990.2 - 8.0
30/05:30am 9.5 -9.4 2.3 61 3.1 NW 91 106 49 57 990.6 - 8.0
30/05:00am 9.3 -12.4 0.3 53 3.6 NW 104 120 56 65 990.3 - 8.0
30/04:40am 9.3 -12.3 1.2 57 3.4 NW 104 122 56 66 990.2 - 8.0
30/04:30am 9.4 -11.7 1.6 58 3.3 NW 102 117 55 63 990.5 - 8.0
30/04:25am 9.4 -11.4 1.3 57 3.4 NW 100 117 54 63 991.1 - 8.0
30/04:00am 9.3 -14.9 2.6 63 2.9 NW 119 135 64 73 990.0 - 8.0
30/03:43am 9.1 -13.8 3.2 66 2.6 NW 113 132 61 71 989.2 - 8.0
30/03:30am 8.9 -14.0 3.5 69 2.3 NW 113 128 61 69 989.6 - 8.0
30/03:01am 9.0 -16.6 2.2 62 2.9 NW 126 145 68 78 988.7 - 8.0
30/03:00am 9.0 -17.0 2.2 62 2.9 NW 128 145 69 78 988.6 988.3 8.0
30/02:30am 8.8 -16.1 3.8 71 2.2 NW 124 148 67 80 988.9 - 8.0
30/02:00am 8.1 -17.8 2.5 68 2.4 NW 128 146 69 79 988.2 - 8.0
30/01:53am 8.1 -16.7 2.2 66 2.5 NW 122 167 66 90 987.3 - 8.0
30/01:51am 8.3 -15.3 3.8 73 2.0 NW 117 167 63 90 987.6 - 8.0
30/01:49am 8.1 -19.8 3.0 70 2.2 NW 139 167 75 90 986.9 - 8.0
30/01:46am 8.5 -19.4 3.0 68 2.4 NW 139 167 75 90 984.7 - 8.0
30/01:35am 8.9 -17.0 2.4 64 2.8 NW 128 146 69 79 985.4 - 8.0
30/01:30am 8.3 -17.7 2.2 65 2.6 NW 128 145 69 78 985.9 - 8.0
30/01:03am 8.0 -17.6 2.1 66 2.5 NW 126 146 68 79 985.6 - 8.0
30/01:00am 7.9 -17.3 2.3 68 2.3 NW 124 141 67 76 985.6 - 8.0
30/12:49am 7.0 -19.5 4.3 83 1.2 NW 133 152 72 82 985.7 - 8.0
30/12:46am 6.7 -21.1 3.7 81 1.3 WNW 139 154 75 83 985.7 - 8.0
30/12:30am 9.3 -14.9 2.6 63 2.9 NW 119 143 64 77 985.3 - 7.6
30/12:16am 9.0 -12.6 4.1 71 2.2 NW 107 141 58 76 985.3 - 7.6
30/12:14am 8.8 -12.9 3.9 71 2.2 NW 107 141 58 76 985.8 - 7.6
30/12:00am 8.8 -16.9 3.4 69 2.4 NW 128 148 69 80 984.1 984.1 7.6
 
Date/Time
EST
Temp
°C
App
Temp
°C
Dew
Point
Rel
Hum
%
Delta-T
°C
Wind Press
QNH
hPa
Press
MSL
hPa
Rain
since 9 am
mm
Dir
 
Spd
km/h
Gust
km/h
Spd
kts
Gust
kts
29/11:33pm 8.9 -16.7 4.2 72 2.1 NW 128 146 69 79 983.5 - 7.6
29/11:30pm 8.6 -17.6 3.1 68 2.4 NW 130 146 70 79 982.9 - 7.6
29/11:07pm 8.9 -16.5 5.4 79 1.6 NW 128 146 69 79 983.2 - 7.4
29/11:00pm 9.5 -16.7 2.9 63 2.8 NW 130 146 70 79 982.5 - 7.4
29/10:41pm 9.2 -18.1 2.0 60 3.0 NW 135 156 73 84 982.1 - 7.4
29/10:32pm 9.0 -14.1 4.4 73 2.0 NW 115 133 62 72 982.3 - 7.4
29/10:30pm 9.2 -13.7 5.3 76 1.8 NW 115 132 62 71 982.9 - 7.4
29/10:10pm 8.3 -16.0 4.8 78 1.6 NW 122 150 66 81 982.8 - 7.4
29/10:00pm 6.9 -22.3 5.1 88 0.8 NW 148 170 80 92 981.7 - 7.4
29/09:56pm 9.5 -18.9 4.2 69 2.4 NW 143 167 77 90 982.0 - 7.4
29/09:45pm 10.0 -14.3 4.8 70 2.4 NW 122 152 66 82 980.0 - 7.4

Other Formats:

Comma delimited format used in spreadsheet applications
http://www.bom.gov.au/fwo/IDT60801/IDT60801.94962.axf

JavaScript Object Notation format (JSON) in row-major order
http://www.bom.gov.au/fwo/IDT60801/IDT60801.94962.json